sensor_id;sensor_type;location;lat;lon;timestamp;temperature;humidity
13203;DHT22;6666;51.626;7.530;2023-04-06T00:00:02;2.10;99.90
13203;DHT22;6666;51.626;7.530;2023-04-06T00:02:36;2.10;99.90
13203;DHT22;6666;51.626;7.530;2023-04-06T00:05:05;2.20;99.90
13203;DHT22;6666;51.626;7.530;2023-04-06T00:07:34;2.20;99.90
13203;DHT22;6666;51.626;7.530;2023-04-06T00:10:04;2.20;99.90
13203;DHT22;6666;51.626;7.530;2023-04-06T00:12:33;2.20;99.90
13203;DHT22;6666;51.626;7.530;2023-04-06T00:15:01;2.20;99.90
13203;DHT22;6666;51.626;7.530;2023-04-06T00:17:32;2.20;99.90
13203;DHT22;6666;51.626;7.530;2023-04-06T00:20:02;2.10;99.90
13203;DHT22;6666;51.626;7.530;2023-04-06T00:22:31;2.10;99.90
13203;DHT22;6666;51.626;7.530;2023-04-06T00:24:59;2.10;99.90
13203;DHT22;6666;51.626;7.530;2023-04-06T00:27:27;2.10;99.90
13203;DHT22;6666;51.626;7.530;2023-04-06T00:29:56;2.00;99.90
13203;DHT22;6666;51.626;7.530;2023-04-06T00:32:24;1.80;99.90
13203;DHT22;6666;51.626;7.530;2023-04-06T00:34:53;1.80;99.90
13203;DHT22;6666;51.626;7.530;2023-04-06T00:37:23;1.80;99.90
13203;DHT22;6666;51.626;7.530;2023-04-06T00:39:51;1.80;99.90
13203;DHT22;6666;51.626;7.530;2023-04-06T00:42:21;1.80;99.90
13203;DHT22;6666;51.626;7.530;2023-04-06T00:44:53;1.80;99.90
13203;DHT22;6666;51.626;7.530;2023-04-06T00:47:22;1.70;99.90
13203;DHT22;6666;51.626;7.530;2023-04-06T00:49:52;1.60;99.90
13203;DHT22;6666;51.626;7.530;2023-04-06T00:52:21;1.70;99.90
13203;DHT22;6666;51.626;7.530;2023-04-06T00:54:51;1.60;99.90
13203;DHT22;6666;51.626;7.530;2023-04-06T00:57:21;1.70;99.90
13203;DHT22;6666;51.626;7.530;2023-04-06T00:59:54;1.70;99.90
13203;DHT22;6666;51.626;7.530;2023-04-06T01:02:23;1.70;99.90
13203;DHT22;6666;51.626;7.530;2023-04-06T01:04:53;1.70;99.90
13203;DHT22;6666;51.626;7.530;2023-04-06T01:07:36;1.70;99.90
13203;DHT22;6666;51.626;7.530;2023-04-06T01:10:22;1.60;99.90
13203;DHT22;6666;51.626;7.530;2023-04-06T01:12:53;1.60;99.90
13203;DHT22;6666;51.626;7.530;2023-04-06T01:15:41;1.50;99.90
13203;DHT22;6666;51.626;7.530;2023-04-06T01:18:14;1.50;99.90
13203;DHT22;6666;51.626;7.530;2023-04-06T01:20:52;1.40;99.90
13203;DHT22;6666;51.626;7.530;2023-04-06T01:23:25;1.40;99.90
13203;DHT22;6666;51.626;7.530;2023-04-06T01:25:53;1.30;99.90
13203;DHT22;6666;51.626;7.530;2023-04-06T01:28:23;1.40;99.90
13203;DHT22;6666;51.626;7.530;2023-04-06T01:31:11;1.30;99.90
13203;DHT22;6666;51.626;7.530;2023-04-06T01:33:47;1.30;99.90
13203;DHT22;6666;51.626;7.530;2023-04-06T01:36:19;1.30;99.90
13203;DHT22;6666;51.626;7.530;2023-04-06T01:38:55;1.30;99.90
13203;DHT22;6666;51.626;7.530;2023-04-06T01:41:32;1.30;99.90
13203;DHT22;6666;51.626;7.530;2023-04-06T01:44:00;1.30;99.90
13203;DHT22;6666;51.626;7.530;2023-04-06T01:46:30;1.30;99.90
13203;DHT22;6666;51.626;7.530;2023-04-06T01:49:02;1.30;99.90
13203;DHT22;6666;51.626;7.530;2023-04-06T01:51:36;1.20;99.90
13203;DHT22;6666;51.626;7.530;2023-04-06T01:54:09;1.20;99.90
13203;DHT22;6666;51.626;7.530;2023-04-06T01:56:53;1.20;99.90
13203;DHT22;6666;51.626;7.530;2023-04-06T01:59:30;1.20;99.90
13203;DHT22;6666;51.626;7.530;2023-04-06T02:02:02;1.20;99.90
13203;DHT22;6666;51.626;7.530;2023-04-06T02:04:33;1.30;99.90
13203;DHT22;6666;51.626;7.530;2023-04-06T02:07:11;1.30;99.90
13203;DHT22;6666;51.626;7.530;2023-04-06T02:09:41;1.30;99.90
13203;DHT22;6666;51.626;7.530;2023-04-06T02:12:18;1.40;99.90
13203;DHT22;6666;51.626;7.530;2023-04-06T02:14:46;1.30;99.90
13203;DHT22;6666;51.626;7.530;2023-04-06T02:17:15;1.30;99.90
13203;DHT22;6666;51.626;7.530;2023-04-06T02:19:43;1.30;99.90
13203;DHT22;6666;51.626;7.530;2023-04-06T02:22:11;1.20;99.90
13203;DHT22;6666;51.626;7.530;2023-04-06T02:28:55;1.20;99.90
13203;DHT22;6666;51.626;7.530;2023-04-06T02:31:23;1.30;99.90
13203;DHT22;6666;51.626;7.530;2023-04-06T02:33:53;1.30;99.90
13203;DHT22;6666;51.626;7.530;2023-04-06T02:36:22;1.20;99.90
13203;DHT22;6666;51.626;7.530;2023-04-06T02:38:51;1.20;99.90
13203;DHT22;6666;51.626;7.530;2023-04-06T02:41:20;1.10;99.90
13203;DHT22;6666;51.626;7.530;2023-04-06T02:43:48;1.00;99.90
13203;DHT22;6666;51.626;7.530;2023-04-06T02:46:28;1.00;99.90
13203;DHT22;6666;51.626;7.530;2023-04-06T02:48:56;1.00;99.90
13203;DHT22;6666;51.626;7.530;2023-04-06T02:51:30;1.00;99.90
13203;DHT22;6666;51.626;7.530;2023-04-06T02:54:08;1.00;99.90
13203;DHT22;6666;51.626;7.530;2023-04-06T02:56:37;1.00;99.90
13203;DHT22;6666;51.626;7.530;2023-04-06T02:59:05;1.00;99.90
13203;DHT22;6666;51.626;7.530;2023-04-06T03:01:36;0.90;99.90
13203;DHT22;6666;51.626;7.530;2023-04-06T03:04:05;0.90;99.90
13203;DHT22;6666;51.626;7.530;2023-04-06T03:06:33;0.90;99.90
13203;DHT22;6666;51.626;7.530;2023-04-06T03:09:12;0.80;99.90
13203;DHT22;6666;51.626;7.530;2023-04-06T03:11:43;0.80;99.90
13203;DHT22;6666;51.626;7.530;2023-04-06T03:14:11;0.80;99.90
13203;DHT22;6666;51.626;7.530;2023-04-06T03:16:41;0.80;99.90
13203;DHT22;6666;51.626;7.530;2023-04-06T03:19:12;0.70;99.90
13203;DHT22;6666;51.626;7.530;2023-04-06T03:21:41;0.70;99.90
13203;DHT22;6666;51.626;7.530;2023-04-06T03:24:10;0.70;99.90
13203;DHT22;6666;51.626;7.530;2023-04-06T03:26:39;0.70;99.90
13203;DHT22;6666;51.626;7.530;2023-04-06T03:29:08;0.80;99.90
13203;DHT22;6666;51.626;7.530;2023-04-06T03:31:37;0.70;99.90
13203;DHT22;6666;51.626;7.530;2023-04-06T03:34:14;0.80;99.90
13203;DHT22;6666;51.626;7.530;2023-04-06T03:36:42;0.70;99.90
13203;DHT22;6666;51.626;7.530;2023-04-06T03:39:12;0.70;99.90
13203;DHT22;6666;51.626;7.530;2023-04-06T03:41:42;0.70;99.90
13203;DHT22;6666;51.626;7.530;2023-04-06T03:44:40;0.80;99.90
13203;DHT22;6666;51.626;7.530;2023-04-06T03:47:09;0.80;99.90
13203;DHT22;6666;51.626;7.530;2023-04-06T03:49:39;0.70;99.90
13203;DHT22;6666;51.626;7.530;2023-04-06T03:52:10;0.70;99.90
13203;DHT22;6666;51.626;7.530;2023-04-06T03:54:39;0.60;99.90
13203;DHT22;6666;51.626;7.530;2023-04-06T03:57:10;0.60;99.90
13203;DHT22;6666;51.626;7.530;2023-04-06T03:59:38;0.60;99.90
13203;DHT22;6666;51.626;7.530;2023-04-06T04:02:07;0.60;99.90
13203;DHT22;6666;51.626;7.530;2023-04-06T04:04:35;0.50;99.90
13203;DHT22;6666;51.626;7.530;2023-04-06T04:07:05;0.60;99.90
13203;DHT22;6666;51.626;7.530;2023-04-06T04:09:34;0.50;99.90
13203;DHT22;6666;51.626;7.530;2023-04-06T04:12:02;0.50;99.90
13203;DHT22;6666;51.626;7.530;2023-04-06T04:14:31;0.50;99.90
13203;DHT22;6666;51.626;7.530;2023-04-06T04:17:01;0.50;99.90
13203;DHT22;6666;51.626;7.530;2023-04-06T04:19:29;0.50;99.90
13203;DHT22;6666;51.626;7.530;2023-04-06T04:21:58;0.50;99.90
13203;DHT22;6666;51.626;7.530;2023-04-06T04:24:34;0.40;99.90
13203;DHT22;6666;51.626;7.530;2023-04-06T04:27:02;0.40;99.90
13203;DHT22;6666;51.626;7.530;2023-04-06T04:29:33;0.50;99.90
13203;DHT22;6666;51.626;7.530;2023-04-06T04:32:06;0.50;99.90
13203;DHT22;6666;51.626;7.530;2023-04-06T04:34:34;0.50;99.90
13203;DHT22;6666;51.626;7.530;2023-04-06T04:37:05;0.50;99.90
13203;DHT22;6666;51.626;7.530;2023-04-06T04:40:05;0.50;99.90
13203;DHT22;6666;51.626;7.530;2023-04-06T04:42:43;0.50;99.90
13203;DHT22;6666;51.626;7.530;2023-04-06T04:45:20;0.50;99.90
13203;DHT22;6666;51.626;7.530;2023-04-06T04:47:49;0.50;99.90
13203;DHT22;6666;51.626;7.530;2023-04-06T04:50:19;0.50;99.90
13203;DHT22;6666;51.626;7.530;2023-04-06T04:52:51;0.50;99.90
13203;DHT22;6666;51.626;7.530;2023-04-06T04:55:23;0.50;99.90
13203;DHT22;6666;51.626;7.530;2023-04-06T04:57:55;0.40;99.90
13203;DHT22;6666;51.626;7.530;2023-04-06T05:00:35;0.40;99.90
13203;DHT22;6666;51.626;7.530;2023-04-06T05:03:04;0.40;99.90
13203;DHT22;6666;51.626;7.530;2023-04-06T05:05:36;0.50;99.90
13203;DHT22;6666;51.626;7.530;2023-04-06T05:08:06;0.60;99.90
13203;DHT22;6666;51.626;7.530;2023-04-06T05:10:43;0.60;99.90
13203;DHT22;6666;51.626;7.530;2023-04-06T05:13:13;0.70;99.90
13203;DHT22;6666;51.626;7.530;2023-04-06T05:15:44;0.60;99.90
13203;DHT22;6666;51.626;7.530;2023-04-06T05:18:39;0.70;99.90
13203;DHT22;6666;51.626;7.530;2023-04-06T05:21:07;0.80;99.90
13203;DHT22;6666;51.626;7.530;2023-04-06T05:24:01;0.90;99.90
13203;DHT22;6666;51.626;7.530;2023-04-06T05:26:33;0.90;99.90
13203;DHT22;6666;51.626;7.530;2023-04-06T05:29:08;1.10;99.90
13203;DHT22;6666;51.626;7.530;2023-04-06T05:31:38;1.10;99.90
13203;DHT22;6666;51.626;7.530;2023-04-06T05:34:08;1.10;99.90
13203;DHT22;6666;51.626;7.530;2023-04-06T05:36:38;1.10;99.90
13203;DHT22;6666;51.626;7.530;2023-04-06T05:39:16;1.20;99.90
13203;DHT22;6666;51.626;7.530;2023-04-06T05:41:51;1.30;99.90
13203;DHT22;6666;51.626;7.530;2023-04-06T05:44:31;1.20;99.90
13203;DHT22;6666;51.626;7.530;2023-04-06T05:47:07;1.20;99.90
13203;DHT22;6666;51.626;7.530;2023-04-06T05:49:38;1.30;99.90
13203;DHT22;6666;51.626;7.530;2023-04-06T05:52:11;1.50;99.90
13203;DHT22;6666;51.626;7.530;2023-04-06T05:54:44;1.60;99.90
13203;DHT22;6666;51.626;7.530;2023-04-06T05:57:14;1.60;99.90
13203;DHT22;6666;51.626;7.530;2023-04-06T05:59:44;1.80;99.90
13203;DHT22;6666;51.626;7.530;2023-04-06T06:02:14;1.80;99.90
13203;DHT22;6666;51.626;7.530;2023-04-06T06:04:46;1.90;99.90
13203;DHT22;6666;51.626;7.530;2023-04-06T06:07:17;2.00;99.90
13203;DHT22;6666;51.626;7.530;2023-04-06T06:09:56;2.10;99.90
13203;DHT22;6666;51.626;7.530;2023-04-06T06:12:32;2.20;99.90
13203;DHT22;6666;51.626;7.530;2023-04-06T06:15:01;2.30;99.90
13203;DHT22;6666;51.626;7.530;2023-04-06T06:17:33;2.40;99.90
13203;DHT22;6666;51.626;7.530;2023-04-06T06:20:06;2.50;99.90
13203;DHT22;6666;51.626;7.530;2023-04-06T06:22:35;2.60;99.90
13203;DHT22;6666;51.626;7.530;2023-04-06T06:25:04;2.70;99.90
13203;DHT22;6666;51.626;7.530;2023-04-06T06:27:34;2.80;99.90
13203;DHT22;6666;51.626;7.530;2023-04-06T06:30:06;2.80;99.90
13203;DHT22;6666;51.626;7.530;2023-04-06T06:32:38;2.90;99.90
13203;DHT22;6666;51.626;7.530;2023-04-06T06:35:08;3.10;99.90
13203;DHT22;6666;51.626;7.530;2023-04-06T06:37:37;3.30;99.90
13203;DHT22;6666;51.626;7.530;2023-04-06T06:40:11;3.40;99.90
13203;DHT22;6666;51.626;7.530;2023-04-06T06:42:42;3.50;99.90
13203;DHT22;6666;51.626;7.530;2023-04-06T06:45:20;3.70;99.90
13203;DHT22;6666;51.626;7.530;2023-04-06T06:47:49;3.70;99.90
13203;DHT22;6666;51.626;7.530;2023-04-06T06:50:21;3.90;99.90
13203;DHT22;6666;51.626;7.530;2023-04-06T06:52:49;4.00;99.90
13203;DHT22;6666;51.626;7.530;2023-04-06T06:55:18;4.00;99.90
13203;DHT22;6666;51.626;7.530;2023-04-06T06:57:48;4.20;99.90
13203;DHT22;6666;51.626;7.530;2023-04-06T07:00:17;4.30;99.90
13203;DHT22;6666;51.626;7.530;2023-04-06T07:02:48;4.40;99.90
13203;DHT22;6666;51.626;7.530;2023-04-06T07:05:17;4.60;99.90
13203;DHT22;6666;51.626;7.530;2023-04-06T07:07:57;4.70;99.90
13203;DHT22;6666;51.626;7.530;2023-04-06T07:10:26;4.90;99.90
13203;DHT22;6666;51.626;7.530;2023-04-06T07:12:56;5.00;99.90
13203;DHT22;6666;51.626;7.530;2023-04-06T07:15:25;5.00;99.90
13203;DHT22;6666;51.626;7.530;2023-04-06T07:17:53;5.20;99.90
13203;DHT22;6666;51.626;7.530;2023-04-06T07:20:22;5.30;99.90
13203;DHT22;6666;51.626;7.530;2023-04-06T07:22:51;5.40;99.90
13203;DHT22;6666;51.626;7.530;2023-04-06T07:25:19;5.60;99.90
13203;DHT22;6666;51.626;7.530;2023-04-06T07:27:51;5.70;99.90
13203;DHT22;6666;51.626;7.530;2023-04-06T07:30:21;5.90;99.90
13203;DHT22;6666;51.626;7.530;2023-04-06T07:32:52;6.10;99.90
13203;DHT22;6666;51.626;7.530;2023-04-06T07:35:23;6.10;99.90
13203;DHT22;6666;51.626;7.530;2023-04-06T07:37:52;6.30;99.90
13203;DHT22;6666;51.626;7.530;2023-04-06T07:40:21;6.40;99.90
13203;DHT22;6666;51.626;7.530;2023-04-06T07:42:51;6.50;99.90
13203;DHT22;6666;51.626;7.530;2023-04-06T07:45:22;6.60;99.90
13203;DHT22;6666;51.626;7.530;2023-04-06T07:47:50;6.80;99.90
13203;DHT22;6666;51.626;7.530;2023-04-06T07:50:19;7.00;99.90
13203;DHT22;6666;51.626;7.530;2023-04-06T07:52:47;7.20;99.90
13203;DHT22;6666;51.626;7.530;2023-04-06T07:55:16;7.20;99.90
13203;DHT22;6666;51.626;7.530;2023-04-06T07:57:44;7.30;99.90
13203;DHT22;6666;51.626;7.530;2023-04-06T08:00:13;7.50;99.90
13203;DHT22;6666;51.626;7.530;2023-04-06T08:02:44;7.60;99.90
13203;DHT22;6666;51.626;7.530;2023-04-06T08:05:12;7.80;99.90
13203;DHT22;6666;51.626;7.530;2023-04-06T08:07:41;7.90;99.90
13203;DHT22;6666;51.626;7.530;2023-04-06T08:10:09;7.90;99.90
13203;DHT22;6666;51.626;7.530;2023-04-06T08:12:38;8.10;99.90
13203;DHT22;6666;51.626;7.530;2023-04-06T08:15:09;8.20;99.90
13203;DHT22;6666;51.626;7.530;2023-04-06T08:17:37;8.20;99.90
13203;DHT22;6666;51.626;7.530;2023-04-06T08:20:08;8.30;99.90
13203;DHT22;6666;51.626;7.530;2023-04-06T08:22:37;8.40;99.90
13203;DHT22;6666;51.626;7.530;2023-04-06T08:25:06;8.40;99.60
13203;DHT22;6666;51.626;7.530;2023-04-06T08:27:34;8.50;99.90
13203;DHT22;6666;51.626;7.530;2023-04-06T08:30:03;8.70;99.90
13203;DHT22;6666;51.626;7.530;2023-04-06T08:32:31;8.70;99.30
13203;DHT22;6666;51.626;7.530;2023-04-06T08:35:00;8.80;99.00
13203;DHT22;6666;51.626;7.530;2023-04-06T08:37:32;8.80;99.00
13203;DHT22;6666;51.626;7.530;2023-04-06T08:40:00;8.80;98.50
13203;DHT22;6666;51.626;7.530;2023-04-06T08:42:32;8.90;98.50
13203;DHT22;6666;51.626;7.530;2023-04-06T08:45:01;8.90;98.50
13203;DHT22;6666;51.626;7.530;2023-04-06T08:47:29;8.90;97.80
13203;DHT22;6666;51.626;7.530;2023-04-06T08:49:58;8.90;97.70
13203;DHT22;6666;51.626;7.530;2023-04-06T08:52:31;9.00;97.10
13203;DHT22;6666;51.626;7.530;2023-04-06T08:55:00;9.00;97.20
13203;DHT22;6666;51.626;7.530;2023-04-06T08:57:32;9.10;97.30
13203;DHT22;6666;51.626;7.530;2023-04-06T09:00:03;9.20;96.60
13203;DHT22;6666;51.626;7.530;2023-04-06T09:02:33;9.40;97.90
13203;DHT22;6666;51.626;7.530;2023-04-06T09:05:01;9.60;97.10
13203;DHT22;6666;51.626;7.530;2023-04-06T09:07:31;9.60;95.50
13203;DHT22;6666;51.626;7.530;2023-04-06T09:09:59;9.60;94.60
13203;DHT22;6666;51.626;7.530;2023-04-06T09:12:29;9.70;96.40
13203;DHT22;6666;51.626;7.530;2023-04-06T09:14:59;9.60;94.50
13203;DHT22;6666;51.626;7.530;2023-04-06T09:17:29;9.80;96.00
13203;DHT22;6666;51.626;7.530;2023-04-06T09:20:01;9.90;96.70
13203;DHT22;6666;51.626;7.530;2023-04-06T09:22:37;10.10;95.10
13203;DHT22;6666;51.626;7.530;2023-04-06T09:25:07;10.10;92.40
13203;DHT22;6666;51.626;7.530;2023-04-06T09:27:37;10.10;92.40
13203;DHT22;6666;51.626;7.530;2023-04-06T09:30:07;10.10;93.50
13203;DHT22;6666;51.626;7.530;2023-04-06T09:32:47;10.10;92.70
13203;DHT22;6666;51.626;7.530;2023-04-06T09:35:16;10.30;92.50
13203;DHT22;6666;51.626;7.530;2023-04-06T09:37:50;10.50;91.80
13203;DHT22;6666;51.626;7.530;2023-04-06T09:40:19;10.60;92.90
13203;DHT22;6666;51.626;7.530;2023-04-06T09:42:49;10.80;91.60
13203;DHT22;6666;51.626;7.530;2023-04-06T09:45:18;11.10;92.40
13203;DHT22;6666;51.626;7.530;2023-04-06T09:47:48;11.00;89.50
13203;DHT22;6666;51.626;7.530;2023-04-06T09:50:19;11.00;91.40
13203;DHT22;6666;51.626;7.530;2023-04-06T09:52:50;11.20;91.70
13203;DHT22;6666;51.626;7.530;2023-04-06T09:55:25;11.30;91.50
13203;DHT22;6666;51.626;7.530;2023-04-06T09:58:04;11.30;91.00
13203;DHT22;6666;51.626;7.530;2023-04-06T10:00:34;11.20;90.50
13203;DHT22;6666;51.626;7.530;2023-04-06T10:03:14;11.40;91.30
13203;DHT22;6666;51.626;7.530;2023-04-06T10:05:52;11.50;88.40
13203;DHT22;6666;51.626;7.530;2023-04-06T10:08:26;11.50;90.80
13203;DHT22;6666;51.626;7.530;2023-04-06T10:10:59;11.70;90.00
13203;DHT22;6666;51.626;7.530;2023-04-06T10:13:29;11.80;88.50
13203;DHT22;6666;51.626;7.530;2023-04-06T10:15:57;11.90;89.70
13203;DHT22;6666;51.626;7.530;2023-04-06T10:18:28;11.90;82.50
13203;DHT22;6666;51.626;7.530;2023-04-06T10:21:01;11.70;81.40
13203;DHT22;6666;51.626;7.530;2023-04-06T10:23:34;11.90;82.00
13203;DHT22;6666;51.626;7.530;2023-04-06T10:26:03;12.00;83.20
13203;DHT22;6666;51.626;7.530;2023-04-06T10:28:34;12.20;84.10
13203;DHT22;6666;51.626;7.530;2023-04-06T10:31:05;12.10;77.30
13203;DHT22;6666;51.626;7.530;2023-04-06T10:33:34;12.10;79.30
13203;DHT22;6666;51.626;7.530;2023-04-06T10:36:10;12.50;78.50
13203;DHT22;6666;51.626;7.530;2023-04-06T10:38:41;12.70;81.40
13203;DHT22;6666;51.626;7.530;2023-04-06T10:41:11;12.80;78.10
13203;DHT22;6666;51.626;7.530;2023-04-06T10:43:41;12.60;75.30
13203;DHT22;6666;51.626;7.530;2023-04-06T10:46:11;12.70;76.30
13203;DHT22;6666;51.626;7.530;2023-04-06T10:48:41;12.80;75.00
13203;DHT22;6666;51.626;7.530;2023-04-06T10:51:11;12.70;75.90
13203;DHT22;6666;51.626;7.530;2023-04-06T10:53:41;12.60;72.80
13203;DHT22;6666;51.626;7.530;2023-04-06T10:56:11;12.80;74.00
13203;DHT22;6666;51.626;7.530;2023-04-06T10:58:44;12.90;73.60
13203;DHT22;6666;51.626;7.530;2023-04-06T11:01:15;13.20;72.00
13203;DHT22;6666;51.626;7.530;2023-04-06T11:03:44;13.20;67.40
13203;DHT22;6666;51.626;7.530;2023-04-06T11:06:19;13.30;68.30
13203;DHT22;6666;51.626;7.530;2023-04-06T11:08:49;13.10;71.30
13203;DHT22;6666;51.626;7.530;2023-04-06T11:11:19;13.20;67.00
13203;DHT22;6666;51.626;7.530;2023-04-06T11:13:50;13.20;66.30
13203;DHT22;6666;51.626;7.530;2023-04-06T11:16:20;13.10;67.70
13203;DHT22;6666;51.626;7.530;2023-04-06T11:18:53;13.20;73.60
13203;DHT22;6666;51.626;7.530;2023-04-06T11:21:33;13.20;72.30
13203;DHT22;6666;51.626;7.530;2023-04-06T11:24:11;13.20;71.50
13203;DHT22;6666;51.626;7.530;2023-04-06T11:26:40;13.20;66.70
13203;DHT22;6666;51.626;7.530;2023-04-06T11:29:11;13.20;66.50
13203;DHT22;6666;51.626;7.530;2023-04-06T11:31:40;13.20;62.40
13203;DHT22;6666;51.626;7.530;2023-04-06T11:34:10;13.30;64.50
13203;DHT22;6666;51.626;7.530;2023-04-06T11:36:41;13.40;63.80
13203;DHT22;6666;51.626;7.530;2023-04-06T11:39:11;13.30;64.50
13203;DHT22;6666;51.626;7.530;2023-04-06T11:41:40;13.60;62.50
13203;DHT22;6666;51.626;7.530;2023-04-06T11:44:09;13.50;60.50
13203;DHT22;6666;51.626;7.530;2023-04-06T11:46:37;13.70;65.30
13203;DHT22;6666;51.626;7.530;2023-04-06T11:49:05;13.60;62.00
13203;DHT22;6666;51.626;7.530;2023-04-06T11:51:36;13.40;62.20
13203;DHT22;6666;51.626;7.530;2023-04-06T11:54:04;13.40;62.10
13203;DHT22;6666;51.626;7.530;2023-04-06T11:56:34;13.50;67.70
13203;DHT22;6666;51.626;7.530;2023-04-06T11:59:03;13.60;65.20
13203;DHT22;6666;51.626;7.530;2023-04-06T12:01:31;13.60;69.40
13203;DHT22;6666;51.626;7.530;2023-04-06T12:04:05;13.70;67.40
13203;DHT22;6666;51.626;7.530;2023-04-06T12:06:33;13.90;67.10
13203;DHT22;6666;51.626;7.530;2023-04-06T12:09:02;14.00;69.40
13203;DHT22;6666;51.626;7.530;2023-04-06T12:11:30;14.10;67.50
13203;DHT22;6666;51.626;7.530;2023-04-06T12:14:00;14.00;70.10
13203;DHT22;6666;51.626;7.530;2023-04-06T12:16:31;14.00;68.70
13203;DHT22;6666;51.626;7.530;2023-04-06T12:19:00;13.90;65.30
13203;DHT22;6666;51.626;7.530;2023-04-06T12:21:30;13.90;68.10
13203;DHT22;6666;51.626;7.530;2023-04-06T12:23:58;14.00;68.40
13203;DHT22;6666;51.626;7.530;2023-04-06T12:26:27;14.00;65.90
13203;DHT22;6666;51.626;7.530;2023-04-06T12:28:56;13.80;67.90
13203;DHT22;6666;51.626;7.530;2023-04-06T12:31:31;13.80;63.70
13203;DHT22;6666;51.626;7.530;2023-04-06T12:34:00;13.60;65.40
13203;DHT22;6666;51.626;7.530;2023-04-06T12:36:30;13.70;66.20
13203;DHT22;6666;51.626;7.530;2023-04-06T12:38:59;13.80;66.40
13203;DHT22;6666;51.626;7.530;2023-04-06T12:41:29;13.80;66.90
13203;DHT22;6666;51.626;7.530;2023-04-06T12:43:58;14.00;69.10
13203;DHT22;6666;51.626;7.530;2023-04-06T12:46:27;14.00;68.60
13203;DHT22;6666;51.626;7.530;2023-04-06T12:48:59;14.00;66.70
13203;DHT22;6666;51.626;7.530;2023-04-06T12:51:28;14.00;64.60
13203;DHT22;6666;51.626;7.530;2023-04-06T12:53:58;14.10;66.90
13203;DHT22;6666;51.626;7.530;2023-04-06T12:56:26;14.20;67.60
13203;DHT22;6666;51.626;7.530;2023-04-06T12:58:54;14.10;65.10
13203;DHT22;6666;51.626;7.530;2023-04-06T13:01:23;14.30;67.30
13203;DHT22;6666;51.626;7.530;2023-04-06T13:03:52;14.20;66.70
13203;DHT22;6666;51.626;7.530;2023-04-06T13:06:22;14.30;72.20
13203;DHT22;6666;51.626;7.530;2023-04-06T13:08:54;14.30;71.50
13203;DHT22;6666;51.626;7.530;2023-04-06T13:11:23;14.40;69.90
13203;DHT22;6666;51.626;7.530;2023-04-06T13:13:54;14.40;68.90
13203;DHT22;6666;51.626;7.530;2023-04-06T13:16:23;14.30;67.80
13203;DHT22;6666;51.626;7.530;2023-04-06T13:18:51;14.20;65.70
13203;DHT22;6666;51.626;7.530;2023-04-06T13:21:21;14.30;68.00
13203;DHT22;6666;51.626;7.530;2023-04-06T13:23:50;14.40;70.40
13203;DHT22;6666;51.626;7.530;2023-04-06T13:26:18;14.40;67.90
13203;DHT22;6666;51.626;7.530;2023-04-06T13:28:47;14.40;68.30
13203;DHT22;6666;51.626;7.530;2023-04-06T13:31:15;14.40;67.10
13203;DHT22;6666;51.626;7.530;2023-04-06T13:33:43;14.50;68.60
13203;DHT22;6666;51.626;7.530;2023-04-06T13:36:12;14.40;71.10
13203;DHT22;6666;51.626;7.530;2023-04-06T13:38:45;14.40;69.30
13203;DHT22;6666;51.626;7.530;2023-04-06T13:41:18;14.50;69.90
13203;DHT22;6666;51.626;7.530;2023-04-06T13:43:47;14.40;71.10
13203;DHT22;6666;51.626;7.530;2023-04-06T13:46:16;14.40;68.30
13203;DHT22;6666;51.626;7.530;2023-04-06T13:48:45;14.40;70.30
13203;DHT22;6666;51.626;7.530;2023-04-06T13:51:14;14.40;71.70
13203;DHT22;6666;51.626;7.530;2023-04-06T13:53:43;14.30;68.10
13203;DHT22;6666;51.626;7.530;2023-04-06T13:56:12;14.10;72.50
13203;DHT22;6666;51.626;7.530;2023-04-06T13:58:41;14.00;71.70
13203;DHT22;6666;51.626;7.530;2023-04-06T14:01:09;14.00;72.60
13203;DHT22;6666;51.626;7.530;2023-04-06T14:03:38;14.00;73.60
13203;DHT22;6666;51.626;7.530;2023-04-06T14:06:12;14.00;72.50
13203;DHT22;6666;51.626;7.530;2023-04-06T14:08:57;13.80;72.60
13203;DHT22;6666;51.626;7.530;2023-04-06T14:11:29;13.60;75.10
13203;DHT22;6666;51.626;7.530;2023-04-06T14:13:59;13.50;76.60
13203;DHT22;6666;51.626;7.530;2023-04-06T14:16:27;13.40;74.80
13203;DHT22;6666;51.626;7.530;2023-04-06T14:18:56;13.30;78.10
13203;DHT22;6666;51.626;7.530;2023-04-06T14:21:25;13.40;78.40
13203;DHT22;6666;51.626;7.530;2023-04-06T14:23:53;13.40;77.40
13203;DHT22;6666;51.626;7.530;2023-04-06T14:26:25;13.30;77.40
13203;DHT22;6666;51.626;7.530;2023-04-06T14:28:56;13.40;78.20
13203;DHT22;6666;51.626;7.530;2023-04-06T14:31:24;13.50;76.30
13203;DHT22;6666;51.626;7.530;2023-04-06T14:33:53;13.50;78.90
13203;DHT22;6666;51.626;7.530;2023-04-06T14:36:21;13.70;81.60
13203;DHT22;6666;51.626;7.530;2023-04-06T14:38:50;13.70;80.00
13203;DHT22;6666;51.626;7.530;2023-04-06T14:41:21;13.60;80.60
13203;DHT22;6666;51.626;7.530;2023-04-06T14:43:50;13.80;82.40
13203;DHT22;6666;51.626;7.530;2023-04-06T14:46:20;13.90;80.50
13203;DHT22;6666;51.626;7.530;2023-04-06T14:48:49;13.80;76.80
13203;DHT22;6666;51.626;7.530;2023-04-06T14:51:17;13.70;76.40
13203;DHT22;6666;51.626;7.530;2023-04-06T14:53:46;13.70;77.00
13203;DHT22;6666;51.626;7.530;2023-04-06T14:56:19;13.70;78.30
13203;DHT22;6666;51.626;7.530;2023-04-06T14:58:48;13.70;78.60
13203;DHT22;6666;51.626;7.530;2023-04-06T15:01:19;13.70;80.90
13203;DHT22;6666;51.626;7.530;2023-04-06T15:03:48;13.50;78.30
13203;DHT22;6666;51.626;7.530;2023-04-06T15:06:18;13.30;81.30
13203;DHT22;6666;51.626;7.530;2023-04-06T15:08:48;13.20;80.20
13203;DHT22;6666;51.626;7.530;2023-04-06T15:11:16;13.40;82.60
13203;DHT22;6666;51.626;7.530;2023-04-06T15:13:44;13.50;83.40
13203;DHT22;6666;51.626;7.530;2023-04-06T15:16:13;13.60;84.70
13203;DHT22;6666;51.626;7.530;2023-04-06T15:18:43;13.50;84.10
13203;DHT22;6666;51.626;7.530;2023-04-06T15:21:12;13.40;86.70
13203;DHT22;6666;51.626;7.530;2023-04-06T15:23:40;13.40;86.90
13203;DHT22;6666;51.626;7.530;2023-04-06T15:26:08;13.20;85.90
13203;DHT22;6666;51.626;7.530;2023-04-06T15:28:36;13.10;87.70
13203;DHT22;6666;51.626;7.530;2023-04-06T15:31:13;13.20;90.00
13203;DHT22;6666;51.626;7.530;2023-04-06T15:33:55;13.00;89.20
13203;DHT22;6666;51.626;7.530;2023-04-06T15:36:26;13.00;90.20
13203;DHT22;6666;51.626;7.530;2023-04-06T15:38:56;12.90;90.70
13203;DHT22;6666;51.626;7.530;2023-04-06T15:41:25;12.90;90.80
13203;DHT22;6666;51.626;7.530;2023-04-06T15:43:54;12.80;91.00
13203;DHT22;6666;51.626;7.530;2023-04-06T15:46:23;12.70;92.50
13203;DHT22;6666;51.626;7.530;2023-04-06T15:48:51;12.60;92.60
13203;DHT22;6666;51.626;7.530;2023-04-06T15:51:21;12.50;94.00
13203;DHT22;6666;51.626;7.530;2023-04-06T15:53:50;12.50;94.10
13203;DHT22;6666;51.626;7.530;2023-04-06T15:56:18;12.50;94.10
13203;DHT22;6666;51.626;7.530;2023-04-06T15:58:46;12.50;94.50
13203;DHT22;6666;51.626;7.530;2023-04-06T16:01:16;12.40;96.20
13203;DHT22;6666;51.626;7.530;2023-04-06T16:03:46;12.40;96.30
13203;DHT22;6666;51.626;7.530;2023-04-06T16:06:14;12.40;97.00
13203;DHT22;6666;51.626;7.530;2023-04-06T16:08:44;12.40;98.30
13203;DHT22;6666;51.626;7.530;2023-04-06T16:11:12;12.30;98.40
13203;DHT22;6666;51.626;7.530;2023-04-06T16:13:41;12.20;98.40
13203;DHT22;6666;51.626;7.530;2023-04-06T16:16:18;12.20;99.10
13203;DHT22;6666;51.626;7.530;2023-04-06T16:18:47;12.10;99.90
13203;DHT22;6666;51.626;7.530;2023-04-06T16:21:16;12.10;99.90